Terminal Aerodrome Forecast
Issued by NWS Wichita, KS

Home | Current Version | Previous Version | Graphics & Text | Print | Product List | Glossary On
Versions: 1 2 3 4 5 6 7 8 9 10 11 12 13 14 15 16 17 18 19
685
FTUS43 KICT 221133
TAFICT
TAF
KICT 221133Z 2212/2312 26019G26KT P6SM OVC020
     FM221500 31027G36KT 6SM -RASN SCT009 OVC015
      TEMPO 2215/2219 3SM -SN
     FM222000 31029G39KT P6SM SCT015 BKN030
     FM230000 31019G27KT P6SM BKN060
     FM230800 31011KT P6SM SKC=

USA.gov is the U.S. government's official web portal to all federal, state and local government web resources and services.